sensor_id;sensor_type;location;lat;lon;timestamp;P1;durP1;ratioP1;P2;durP2;ratioP2
27566;SDS011;15006;48.584;9.186;2023-02-15T00:02:02;40.15;;;19.98;;
27566;SDS011;15006;48.584;9.186;2023-02-15T00:04:30;31.08;;;18.83;;
27566;SDS011;15006;48.584;9.186;2023-02-15T00:07:17;31.75;;;19.23;;
27566;SDS011;15006;48.584;9.186;2023-02-15T00:09:46;35.65;;;19.48;;
27566;SDS011;15006;48.584;9.186;2023-02-15T00:12:12;31.77;;;19.35;;
27566;SDS011;15006;48.584;9.186;2023-02-15T00:14:40;35.70;;;20.42;;
27566;SDS011;15006;48.584;9.186;2023-02-15T00:17:08;31.70;;;18.98;;
27566;SDS011;15006;48.584;9.186;2023-02-15T00:19:36;32.95;;;20.15;;
27566;SDS011;15006;48.584;9.186;2023-02-15T00:22:03;38.78;;;19.33;;
27566;SDS011;15006;48.584;9.186;2023-02-15T00:24:31;36.40;;;20.90;;
27566;SDS011;15006;48.584;9.186;2023-02-15T00:27:03;37.60;;;21.13;;
27566;SDS011;15006;48.584;9.186;2023-02-15T00:29:31;36.25;;;20.27;;
27566;SDS011;15006;48.584;9.186;2023-02-15T00:32:00;38.72;;;22.65;;
27566;SDS011;15006;48.584;9.186;2023-02-15T00:34:28;35.90;;;20.67;;
27566;SDS011;15006;48.584;9.186;2023-02-15T00:36:56;39.55;;;22.33;;
27566;SDS011;15006;48.584;9.186;2023-02-15T00:39:24;34.33;;;21.20;;
27566;SDS011;15006;48.584;9.186;2023-02-15T00:41:53;36.20;;;20.95;;
27566;SDS011;15006;48.584;9.186;2023-02-15T00:44:21;39.20;;;20.88;;
27566;SDS011;15006;48.584;9.186;2023-02-15T00:46:47;40.20;;;21.10;;
27566;SDS011;15006;48.584;9.186;2023-02-15T00:49:13;32.75;;;19.63;;
27566;SDS011;15006;48.584;9.186;2023-02-15T00:51:39;34.25;;;20.45;;
27566;SDS011;15006;48.584;9.186;2023-02-15T00:54:05;36.90;;;19.65;;
27566;SDS011;15006;48.584;9.186;2023-02-15T00:56:32;43.10;;;20.77;;
27566;SDS011;15006;48.584;9.186;2023-02-15T00:58:58;34.38;;;20.88;;
27566;SDS011;15006;48.584;9.186;2023-02-15T01:01:24;39.28;;;20.67;;
27566;SDS011;15006;48.584;9.186;2023-02-15T01:03:52;35.67;;;21.33;;
27566;SDS011;15006;48.584;9.186;2023-02-15T01:06:27;41.53;;;22.10;;
27566;SDS011;15006;48.584;9.186;2023-02-15T01:08:55;35.17;;;21.60;;
27566;SDS011;15006;48.584;9.186;2023-02-15T01:11:22;46.38;;;21.90;;
27566;SDS011;15006;48.584;9.186;2023-02-15T01:13:49;35.58;;;21.52;;
27566;SDS011;15006;48.584;9.186;2023-02-15T01:16:21;34.58;;;19.80;;
27566;SDS011;15006;48.584;9.186;2023-02-15T01:18:48;37.25;;;19.63;;
27566;SDS011;15006;48.584;9.186;2023-02-15T01:21:15;33.67;;;20.38;;
27566;SDS011;15006;48.584;9.186;2023-02-15T01:23:44;25.67;;;15.80;;
27566;SDS011;15006;48.584;9.186;2023-02-15T01:26:10;35.63;;;20.77;;
27566;SDS011;15006;48.584;9.186;2023-02-15T01:28:37;30.80;;;19.38;;
27566;SDS011;15006;48.584;9.186;2023-02-15T01:31:11;34.38;;;20.50;;
27566;SDS011;15006;48.584;9.186;2023-02-15T01:33:41;35.00;;;20.25;;
27566;SDS011;15006;48.584;9.186;2023-02-15T01:36:07;35.33;;;19.73;;
27566;SDS011;15006;48.584;9.186;2023-02-15T01:38:34;33.40;;;19.60;;
27566;SDS011;15006;48.584;9.186;2023-02-15T01:41:01;39.58;;;20.25;;
27566;SDS011;15006;48.584;9.186;2023-02-15T01:43:46;38.05;;;19.70;;
27566;SDS011;15006;48.584;9.186;2023-02-15T01:46:17;33.25;;;19.65;;
27566;SDS011;15006;48.584;9.186;2023-02-15T01:48:56;41.75;;;20.88;;
27566;SDS011;15006;48.584;9.186;2023-02-15T01:51:29;37.58;;;21.08;;
27566;SDS011;15006;48.584;9.186;2023-02-15T01:54:41;31.95;;;19.85;;
27566;SDS011;15006;48.584;9.186;2023-02-15T01:57:01;34.33;;;20.40;;
27566;SDS011;15006;48.584;9.186;2023-02-15T01:59:31;41.28;;;19.95;;
27566;SDS011;15006;48.584;9.186;2023-02-15T02:01:59;30.48;;;19.58;;
27566;SDS011;15006;48.584;9.186;2023-02-15T02:04:31;40.80;;;20.38;;
27566;SDS011;15006;48.584;9.186;2023-02-15T02:07:06;38.90;;;20.35;;
27566;SDS011;15006;48.584;9.186;2023-02-15T02:09:35;32.75;;;20.25;;
27566;SDS011;15006;48.584;9.186;2023-02-15T02:12:02;39.50;;;21.05;;
27566;SDS011;15006;48.584;9.186;2023-02-15T02:14:28;35.75;;;20.42;;
27566;SDS011;15006;48.584;9.186;2023-02-15T02:17:05;39.95;;;22.13;;
27566;SDS011;15006;48.584;9.186;2023-02-15T02:31:44;37.92;;;21.80;;
27566;SDS011;15006;48.584;9.186;2023-02-15T02:34:46;39.72;;;21.63;;
27566;SDS011;15006;48.584;9.186;2023-02-15T02:37:30;32.20;;;18.85;;
27566;SDS011;15006;48.584;9.186;2023-02-15T02:43:15;39.83;;;20.42;;
27566;SDS011;15006;48.584;9.186;2023-02-15T02:46:53;38.53;;;21.67;;
27566;SDS011;15006;48.584;9.186;2023-02-15T02:49:17;36.75;;;21.90;;
27566;SDS011;15006;48.584;9.186;2023-02-15T02:52:01;39.88;;;22.17;;
27566;SDS011;15006;48.584;9.186;2023-02-15T02:54:29;42.65;;;21.83;;
27566;SDS011;15006;48.584;9.186;2023-02-15T02:56:58;39.00;;;21.55;;
27566;SDS011;15006;48.584;9.186;2023-02-15T02:59:33;38.17;;;21.05;;
27566;SDS011;15006;48.584;9.186;2023-02-15T03:02:05;34.33;;;20.08;;
27566;SDS011;15006;48.584;9.186;2023-02-15T03:04:56;36.63;;;20.58;;
27566;SDS011;15006;48.584;9.186;2023-02-15T03:07:29;32.65;;;19.80;;
27566;SDS011;15006;48.584;9.186;2023-02-15T03:09:57;35.03;;;19.25;;
27566;SDS011;15006;48.584;9.186;2023-02-15T03:12:27;34.85;;;20.08;;
27566;SDS011;15006;48.584;9.186;2023-02-15T03:15:00;39.88;;;21.15;;
27566;SDS011;15006;48.584;9.186;2023-02-15T03:17:38;46.35;;;23.88;;
27566;SDS011;15006;48.584;9.186;2023-02-15T03:20:31;52.38;;;26.30;;
27566;SDS011;15006;48.584;9.186;2023-02-15T03:23:00;46.60;;;24.08;;
27566;SDS011;15006;48.584;9.186;2023-02-15T03:25:31;38.30;;;21.23;;
27566;SDS011;15006;48.584;9.186;2023-02-15T03:28:01;36.27;;;21.27;;
27566;SDS011;15006;48.584;9.186;2023-02-15T03:30:32;33.22;;;19.45;;
27566;SDS011;15006;48.584;9.186;2023-02-15T03:33:01;35.38;;;20.48;;
27566;SDS011;15006;48.584;9.186;2023-02-15T03:35:37;35.58;;;20.05;;
27566;SDS011;15006;48.584;9.186;2023-02-15T03:38:10;39.25;;;21.05;;
27566;SDS011;15006;48.584;9.186;2023-02-15T03:40:40;36.75;;;20.52;;
27566;SDS011;15006;48.584;9.186;2023-02-15T03:49:09;43.92;;;23.98;;
27566;SDS011;15006;48.584;9.186;2023-02-15T03:51:42;44.65;;;22.30;;
27566;SDS011;15006;48.584;9.186;2023-02-15T03:54:12;41.22;;;23.52;;
27566;SDS011;15006;48.584;9.186;2023-02-15T03:57:04;34.80;;;20.65;;
27566;SDS011;15006;48.584;9.186;2023-02-15T03:59:51;35.17;;;21.50;;
27566;SDS011;15006;48.584;9.186;2023-02-15T04:02:40;37.00;;;21.02;;
27566;SDS011;15006;48.584;9.186;2023-02-15T04:05:19;35.45;;;20.20;;
27566;SDS011;15006;48.584;9.186;2023-02-15T04:07:45;32.70;;;19.02;;
27566;SDS011;15006;48.584;9.186;2023-02-15T04:10:11;33.80;;;20.80;;
27566;SDS011;15006;48.584;9.186;2023-02-15T04:12:56;32.28;;;20.27;;
27566;SDS011;15006;48.584;9.186;2023-02-15T04:15:22;34.15;;;20.60;;
27566;SDS011;15006;48.584;9.186;2023-02-15T04:18:07;35.13;;;19.48;;
27566;SDS011;15006;48.584;9.186;2023-02-15T04:20:33;35.88;;;20.55;;
27566;SDS011;15006;48.584;9.186;2023-02-15T04:23:18;36.10;;;19.65;;
27566;SDS011;15006;48.584;9.186;2023-02-15T04:26:04;35.10;;;19.90;;
27566;SDS011;15006;48.584;9.186;2023-02-15T04:28:30;36.63;;;19.65;;
27566;SDS011;15006;48.584;9.186;2023-02-15T04:30:56;38.42;;;19.42;;
27566;SDS011;15006;48.584;9.186;2023-02-15T04:33:23;31.33;;;19.55;;
27566;SDS011;15006;48.584;9.186;2023-02-15T04:35:49;34.88;;;18.60;;
27566;SDS011;15006;48.584;9.186;2023-02-15T04:38:15;31.23;;;19.10;;
27566;SDS011;15006;48.584;9.186;2023-02-15T04:40:41;35.88;;;19.55;;
27566;SDS011;15006;48.584;9.186;2023-02-15T04:43:07;29.17;;;19.05;;
27566;SDS011;15006;48.584;9.186;2023-02-15T04:45:33;29.92;;;18.92;;
27566;SDS011;15006;48.584;9.186;2023-02-15T04:47:59;40.08;;;19.25;;
27566;SDS011;15006;48.584;9.186;2023-02-15T04:50:25;32.42;;;19.58;;
27566;SDS011;15006;48.584;9.186;2023-02-15T04:52:51;34.85;;;19.80;;
27566;SDS011;15006;48.584;9.186;2023-02-15T04:55:16;36.75;;;20.95;;
27566;SDS011;15006;48.584;9.186;2023-02-15T04:57:42;32.67;;;18.98;;
27566;SDS011;15006;48.584;9.186;2023-02-15T05:00:08;33.90;;;18.75;;
27566;SDS011;15006;48.584;9.186;2023-02-15T05:02:35;32.28;;;18.63;;
27566;SDS011;15006;48.584;9.186;2023-02-15T05:05:01;41.15;;;22.48;;
27566;SDS011;15006;48.584;9.186;2023-02-15T05:07:28;31.50;;;19.63;;
27566;SDS011;15006;48.584;9.186;2023-02-15T05:09:54;34.28;;;19.52;;
27566;SDS011;15006;48.584;9.186;2023-02-15T05:12:20;37.97;;;20.45;;
27566;SDS011;15006;48.584;9.186;2023-02-15T05:14:46;35.90;;;20.67;;
27566;SDS011;15006;48.584;9.186;2023-02-15T05:17:12;39.58;;;21.02;;
27566;SDS011;15006;48.584;9.186;2023-02-15T05:19:38;37.80;;;21.77;;
27566;SDS011;15006;48.584;9.186;2023-02-15T05:22:04;45.92;;;22.35;;
27566;SDS011;15006;48.584;9.186;2023-02-15T05:24:30;40.00;;;21.60;;
27566;SDS011;15006;48.584;9.186;2023-02-15T05:27:14;36.80;;;20.05;;
27566;SDS011;15006;48.584;9.186;2023-02-15T05:29:59;33.70;;;19.17;;
27566;SDS011;15006;48.584;9.186;2023-02-15T05:32:25;32.40;;;19.60;;
27566;SDS011;15006;48.584;9.186;2023-02-15T05:34:51;30.02;;;18.25;;
27566;SDS011;15006;48.584;9.186;2023-02-15T05:37:17;34.95;;;20.38;;
27566;SDS011;15006;48.584;9.186;2023-02-15T05:39:43;31.83;;;19.45;;
27566;SDS011;15006;48.584;9.186;2023-02-15T05:42:09;33.72;;;19.00;;
27566;SDS011;15006;48.584;9.186;2023-02-15T05:44:35;32.38;;;20.42;;
27566;SDS011;15006;48.584;9.186;2023-02-15T05:47:01;32.30;;;19.20;;
27566;SDS011;15006;48.584;9.186;2023-02-15T05:49:28;31.92;;;19.23;;
27566;SDS011;15006;48.584;9.186;2023-02-15T05:51:55;33.45;;;19.65;;
27566;SDS011;15006;48.584;9.186;2023-02-15T05:54:21;46.15;;;21.40;;
27566;SDS011;15006;48.584;9.186;2023-02-15T05:56:47;40.50;;;21.08;;
27566;SDS011;15006;48.584;9.186;2023-02-15T05:59:13;44.95;;;22.45;;
27566;SDS011;15006;48.584;9.186;2023-02-15T06:01:39;32.55;;;19.17;;
27566;SDS011;15006;48.584;9.186;2023-02-15T06:04:06;29.95;;;18.73;;
27566;SDS011;15006;48.584;9.186;2023-02-15T06:06:32;36.88;;;20.95;;
27566;SDS011;15006;48.584;9.186;2023-02-15T06:09:00;34.15;;;19.75;;
27566;SDS011;15006;48.584;9.186;2023-02-15T06:11:26;38.72;;;21.00;;
27566;SDS011;15006;48.584;9.186;2023-02-15T06:13:52;36.53;;;20.75;;
27566;SDS011;15006;48.584;9.186;2023-02-15T06:16:18;37.65;;;21.58;;
27566;SDS011;15006;48.584;9.186;2023-02-15T06:18:43;40.78;;;22.35;;
27566;SDS011;15006;48.584;9.186;2023-02-15T06:21:09;37.78;;;22.70;;
27566;SDS011;15006;48.584;9.186;2023-02-15T06:23:35;48.95;;;24.02;;
27566;SDS011;15006;48.584;9.186;2023-02-15T06:26:01;42.75;;;23.65;;
27566;SDS011;15006;48.584;9.186;2023-02-15T06:28:27;43.08;;;23.38;;
27566;SDS011;15006;48.584;9.186;2023-02-15T06:30:53;43.40;;;24.58;;
27566;SDS011;15006;48.584;9.186;2023-02-15T06:33:19;42.80;;;23.83;;
27566;SDS011;15006;48.584;9.186;2023-02-15T06:35:46;46.05;;;25.50;;
27566;SDS011;15006;48.584;9.186;2023-02-15T06:38:12;40.75;;;24.35;;
27566;SDS011;15006;48.584;9.186;2023-02-15T06:40:38;45.92;;;25.73;;
27566;SDS011;15006;48.584;9.186;2023-02-15T06:43:04;43.97;;;23.00;;
27566;SDS011;15006;48.584;9.186;2023-02-15T06:45:30;43.28;;;23.30;;
27566;SDS011;15006;48.584;9.186;2023-02-15T06:47:56;44.80;;;24.27;;
27566;SDS011;15006;48.584;9.186;2023-02-15T06:50:22;44.15;;;23.17;;
27566;SDS011;15006;48.584;9.186;2023-02-15T06:52:48;42.63;;;23.13;;
27566;SDS011;15006;48.584;9.186;2023-02-15T06:55:14;41.90;;;23.50;;
27566;SDS011;15006;48.584;9.186;2023-02-15T06:57:40;39.53;;;21.52;;
27566;SDS011;15006;48.584;9.186;2023-02-15T07:00:06;42.90;;;23.25;;
27566;SDS011;15006;48.584;9.186;2023-02-15T07:02:33;40.22;;;21.77;;
27566;SDS011;15006;48.584;9.186;2023-02-15T07:04:59;39.22;;;23.05;;
27566;SDS011;15006;48.584;9.186;2023-02-15T07:07:25;42.95;;;22.10;;
27566;SDS011;15006;48.584;9.186;2023-02-15T07:09:51;46.47;;;24.80;;
27566;SDS011;15006;48.584;9.186;2023-02-15T07:12:17;48.75;;;24.25;;
27566;SDS011;15006;48.584;9.186;2023-02-15T07:15:01;54.55;;;26.77;;
27566;SDS011;15006;48.584;9.186;2023-02-15T07:17:29;52.22;;;27.55;;
27566;SDS011;15006;48.584;9.186;2023-02-15T07:19:57;43.05;;;24.02;;
27566;SDS011;15006;48.584;9.186;2023-02-15T07:22:23;46.30;;;25.33;;
27566;SDS011;15006;48.584;9.186;2023-02-15T07:24:49;43.97;;;24.58;;
27566;SDS011;15006;48.584;9.186;2023-02-15T07:27:15;43.20;;;25.67;;
27566;SDS011;15006;48.584;9.186;2023-02-15T07:29:41;46.17;;;24.30;;
27566;SDS011;15006;48.584;9.186;2023-02-15T07:32:07;42.67;;;25.08;;
27566;SDS011;15006;48.584;9.186;2023-02-15T07:34:32;39.00;;;23.33;;
27566;SDS011;15006;48.584;9.186;2023-02-15T07:36:58;37.88;;;23.67;;
27566;SDS011;15006;48.584;9.186;2023-02-15T07:39:24;35.30;;;22.50;;
27566;SDS011;15006;48.584;9.186;2023-02-15T07:41:50;39.03;;;23.23;;
27566;SDS011;15006;48.584;9.186;2023-02-15T07:44:17;37.67;;;21.20;;
27566;SDS011;15006;48.584;9.186;2023-02-15T07:46:43;35.22;;;21.15;;
27566;SDS011;15006;48.584;9.186;2023-02-15T07:49:09;38.42;;;22.92;;
27566;SDS011;15006;48.584;9.186;2023-02-15T07:51:35;36.90;;;22.67;;
27566;SDS011;15006;48.584;9.186;2023-02-15T07:54:01;40.17;;;22.60;;
27566;SDS011;15006;48.584;9.186;2023-02-15T07:56:27;38.85;;;23.65;;
27566;SDS011;15006;48.584;9.186;2023-02-15T07:58:53;36.38;;;23.20;;
27566;SDS011;15006;48.584;9.186;2023-02-15T08:01:24;29.30;;;17.63;;
27566;SDS011;15006;48.584;9.186;2023-02-15T08:03:54;41.95;;;23.50;;
27566;SDS011;15006;48.584;9.186;2023-02-15T08:06:22;36.97;;;23.13;;
27566;SDS011;15006;48.584;9.186;2023-02-15T08:08:50;35.60;;;22.30;;
27566;SDS011;15006;48.584;9.186;2023-02-15T08:16:47;35.97;;;22.15;;
27566;SDS011;15006;48.584;9.186;2023-02-15T08:19:17;34.38;;;20.80;;
27566;SDS011;15006;48.584;9.186;2023-02-15T08:21:56;34.30;;;21.23;;
27566;SDS011;15006;48.584;9.186;2023-02-15T08:24:29;36.15;;;22.23;;
27566;SDS011;15006;48.584;9.186;2023-02-15T08:26:57;35.63;;;20.85;;
27566;SDS011;15006;48.584;9.186;2023-02-15T08:29:25;36.83;;;21.77;;
27566;SDS011;15006;48.584;9.186;2023-02-15T08:31:53;38.88;;;21.42;;
27566;SDS011;15006;48.584;9.186;2023-02-15T08:36:49;33.22;;;20.83;;
27566;SDS011;15006;48.584;9.186;2023-02-15T08:39:16;36.45;;;21.42;;
27566;SDS011;15006;48.584;9.186;2023-02-15T08:41:43;32.80;;;20.63;;
27566;SDS011;15006;48.584;9.186;2023-02-15T08:44:11;36.55;;;22.45;;
27566;SDS011;15006;48.584;9.186;2023-02-15T08:46:41;40.45;;;22.65;;
27566;SDS011;15006;48.584;9.186;2023-02-15T08:49:09;36.63;;;22.20;;
27566;SDS011;15006;48.584;9.186;2023-02-15T08:51:40;36.33;;;21.40;;
27566;SDS011;15006;48.584;9.186;2023-02-15T08:54:08;34.08;;;22.33;;
27566;SDS011;15006;48.584;9.186;2023-02-15T08:56:38;31.63;;;20.55;;
27566;SDS011;15006;48.584;9.186;2023-02-15T08:59:07;34.00;;;21.90;;
27566;SDS011;15006;48.584;9.186;2023-02-15T09:01:46;35.42;;;20.13;;
27566;SDS011;15006;48.584;9.186;2023-02-15T09:04:14;32.05;;;19.02;;
27566;SDS011;15006;48.584;9.186;2023-02-15T09:06:41;28.58;;;18.33;;
27566;SDS011;15006;48.584;9.186;2023-02-15T09:09:10;26.58;;;15.82;;
27566;SDS011;15006;48.584;9.186;2023-02-15T09:11:37;26.52;;;17.13;;
27566;SDS011;15006;48.584;9.186;2023-02-15T09:14:10;26.10;;;17.30;;
27566;SDS011;15006;48.584;9.186;2023-02-15T09:16:40;23.90;;;16.85;;
27566;SDS011;15006;48.584;9.186;2023-02-15T09:19:14;24.98;;;17.05;;
27566;SDS011;15006;48.584;9.186;2023-02-15T09:21:42;25.60;;;17.30;;
27566;SDS011;15006;48.584;9.186;2023-02-15T09:24:09;22.48;;;15.75;;
27566;SDS011;15006;48.584;9.186;2023-02-15T09:26:38;23.08;;;16.17;;
27566;SDS011;15006;48.584;9.186;2023-02-15T09:29:06;24.08;;;15.77;;
27566;SDS011;15006;48.584;9.186;2023-02-15T09:31:37;26.55;;;16.73;;
27566;SDS011;15006;48.584;9.186;2023-02-15T09:34:06;26.88;;;16.77;;
27566;SDS011;15006;48.584;9.186;2023-02-15T09:36:33;21.17;;;13.45;;
27566;SDS011;15006;48.584;9.186;2023-02-15T09:59:11;11.07;;;9.10;;
27566;SDS011;15006;48.584;9.186;2023-02-15T10:11:15;16.65;;;13.27;;
27566;SDS011;15006;48.584;9.186;2023-02-15T10:20:31;14.60;;;11.02;;
27566;SDS011;15006;48.584;9.186;2023-02-15T10:32:26;12.77;;;9.82;;
27566;SDS011;15006;48.584;9.186;2023-02-15T10:35:01;14.25;;;10.30;;
27566;SDS011;15006;48.584;9.186;2023-02-15T10:37:50;12.45;;;8.50;;
27566;SDS011;15006;48.584;9.186;2023-02-15T10:40:54;11.68;;;10.30;;
27566;SDS011;15006;48.584;9.186;2023-02-15T10:43:57;13.00;;;9.50;;
27566;SDS011;15006;48.584;9.186;2023-02-15T10:55:31;14.45;;;9.30;;
27566;SDS011;15006;48.584;9.186;2023-02-15T10:58:56;12.63;;;8.43;;
27566;SDS011;15006;48.584;9.186;2023-02-15T11:04:18;8.63;;;7.82;;
27566;SDS011;15006;48.584;9.186;2023-02-15T11:07:15;7.57;;;6.97;;
27566;SDS011;15006;48.584;9.186;2023-02-15T11:09:46;8.32;;;7.43;;
27566;SDS011;15006;48.584;9.186;2023-02-15T11:12:20;8.40;;;7.55;;
27566;SDS011;15006;48.584;9.186;2023-02-15T11:14:55;7.80;;;6.88;;
27566;SDS011;15006;48.584;9.186;2023-02-15T11:17:52;6.00;;;5.60;;
27566;SDS011;15006;48.584;9.186;2023-02-15T11:20:36;7.40;;;6.70;;
27566;SDS011;15006;48.584;9.186;2023-02-15T11:23:12;7.65;;;6.93;;
27566;SDS011;15006;48.584;9.186;2023-02-15T11:25:42;7.68;;;6.25;;
27566;SDS011;15006;48.584;9.186;2023-02-15T11:28:42;7.20;;;6.60;;
27566;SDS011;15006;48.584;9.186;2023-02-15T11:31:17;6.25;;;5.72;;
27566;SDS011;15006;48.584;9.186;2023-02-15T11:33:58;7.72;;;5.80;;
27566;SDS011;15006;48.584;9.186;2023-02-15T11:36:34;6.88;;;6.18;;
27566;SDS011;15006;48.584;9.186;2023-02-15T11:39:09;6.72;;;6.13;;
27566;SDS011;15006;48.584;9.186;2023-02-15T11:42:02;6.55;;;5.95;;
27566;SDS011;15006;48.584;9.186;2023-02-15T11:47:44;6.45;;;5.85;;
27566;SDS011;15006;48.584;9.186;2023-02-15T11:50:18;6.20;;;5.72;;
27566;SDS011;15006;48.584;9.186;2023-02-15T11:52:52;6.13;;;5.70;;
27566;SDS011;15006;48.584;9.186;2023-02-15T11:55:29;7.10;;;6.18;;
27566;SDS011;15006;48.584;9.186;2023-02-15T11:58:09;7.97;;;6.15;;
27566;SDS011;15006;48.584;9.186;2023-02-15T12:06:54;7.03;;;5.20;;
27566;SDS011;15006;48.584;9.186;2023-02-15T12:09:42;5.35;;;4.95;;
27566;SDS011;15006;48.584;9.186;2023-02-15T12:12:43;5.13;;;4.80;;
27566;SDS011;15006;48.584;9.186;2023-02-15T12:15:10;7.85;;;5.40;;
27566;SDS011;15006;48.584;9.186;2023-02-15T12:17:39;5.53;;;5.13;;
27566;SDS011;15006;48.584;9.186;2023-02-15T12:23:17;5.20;;;4.85;;
27566;SDS011;15006;48.584;9.186;2023-02-15T12:30:58;5.30;;;5.00;;
27566;SDS011;15006;48.584;9.186;2023-02-15T12:36:03;5.82;;;5.45;;
27566;SDS011;15006;48.584;9.186;2023-02-15T12:38:37;6.20;;;5.40;;
27566;SDS011;15006;48.584;9.186;2023-02-15T12:41:22;5.70;;;5.40;;
27566;SDS011;15006;48.584;9.186;2023-02-15T12:44:05;5.85;;;5.32;;
27566;SDS011;15006;48.584;9.186;2023-02-15T12:47:04;5.97;;;5.57;;
27566;SDS011;15006;48.584;9.186;2023-02-15T12:49:34;5.97;;;5.35;;
27566;SDS011;15006;48.584;9.186;2023-02-15T12:52:06;5.75;;;5.30;;
27566;SDS011;15006;48.584;9.186;2023-02-15T12:54:47;5.55;;;5.05;;
27566;SDS011;15006;48.584;9.186;2023-02-15T12:57:27;7.85;;;5.25;;
27566;SDS011;15006;48.584;9.186;2023-02-15T13:02:36;7.18;;;5.80;;
27566;SDS011;15006;48.584;9.186;2023-02-15T13:08:17;6.53;;;6.07;;
27566;SDS011;15006;48.584;9.186;2023-02-15T13:10:54;6.28;;;5.78;;
27566;SDS011;15006;48.584;9.186;2023-02-15T13:13:26;6.00;;;5.50;;
27566;SDS011;15006;48.584;9.186;2023-02-15T13:16:02;5.47;;;5.18;;
27566;SDS011;15006;48.584;9.186;2023-02-15T13:18:39;5.95;;;5.45;;
27566;SDS011;15006;48.584;9.186;2023-02-15T13:21:12;6.40;;;5.88;;
27566;SDS011;15006;48.584;9.186;2023-02-15T13:23:48;7.18;;;5.47;;
27566;SDS011;15006;48.584;9.186;2023-02-15T13:26:22;8.73;;;6.22;;
27566;SDS011;15006;48.584;9.186;2023-02-15T13:28:53;7.07;;;5.97;;
27566;SDS011;15006;48.584;9.186;2023-02-15T13:31:23;7.10;;;6.57;;
27566;SDS011;15006;48.584;9.186;2023-02-15T13:36:57;6.10;;;5.68;;
27566;SDS011;15006;48.584;9.186;2023-02-15T13:39:43;6.93;;;5.80;;
27566;SDS011;15006;48.584;9.186;2023-02-15T13:48:23;10.35;;;6.10;;
27566;SDS011;15006;48.584;9.186;2023-02-15T13:59:56;6.63;;;5.90;;
27566;SDS011;15006;48.584;9.186;2023-02-15T14:02:42;5.57;;;5.28;;
27566;SDS011;15006;48.584;9.186;2023-02-15T14:22:35;8.25;;;7.47;;
27566;SDS011;15006;48.584;9.186;2023-02-15T14:25:18;7.47;;;6.88;;
27566;SDS011;15006;48.584;9.186;2023-02-15T14:28:03;7.63;;;6.93;;
27566;SDS011;15006;48.584;9.186;2023-02-15T14:31:21;8.35;;;7.18;;
27566;SDS011;15006;48.584;9.186;2023-02-15T14:34:04;7.53;;;6.95;;
27566;SDS011;15006;48.584;9.186;2023-02-15T14:36:30;7.95;;;7.32;;
27566;SDS011;15006;48.584;9.186;2023-02-15T14:39:07;8.82;;;7.38;;
27566;SDS011;15006;48.584;9.186;2023-02-15T14:48:37;7.78;;;7.15;;
27566;SDS011;15006;48.584;9.186;2023-02-15T14:50:49;8.93;;;7.25;;
27566;SDS011;15006;48.584;9.186;2023-02-15T14:58:35;7.47;;;6.78;;
27566;SDS011;15006;48.584;9.186;2023-02-15T15:01:29;8.18;;;6.57;;
27566;SDS011;15006;48.584;9.186;2023-02-15T15:04:07;6.80;;;6.20;;
27566;SDS011;15006;48.584;9.186;2023-02-15T15:06:39;6.10;;;5.60;;
27566;SDS011;15006;48.584;9.186;2023-02-15T15:09:18;5.70;;;5.20;;
27566;SDS011;15006;48.584;9.186;2023-02-15T15:11:51;7.38;;;5.90;;
27566;SDS011;15006;48.584;9.186;2023-02-15T15:20:04;9.80;;;4.72;;
27566;SDS011;15006;48.584;9.186;2023-02-15T15:39:58;8.57;;;4.78;;
27566;SDS011;15006;48.584;9.186;2023-02-15T15:48:46;5.82;;;5.35;;
27566;SDS011;15006;48.584;9.186;2023-02-15T15:51:27;5.40;;;5.05;;
27566;SDS011;15006;48.584;9.186;2023-02-15T15:53:58;6.00;;;5.40;;
27566;SDS011;15006;48.584;9.186;2023-02-15T15:56:29;6.30;;;5.20;;
27566;SDS011;15006;48.584;9.186;2023-02-15T15:59:00;5.75;;;5.22;;
27566;SDS011;15006;48.584;9.186;2023-02-15T16:01:34;8.98;;;6.03;;
27566;SDS011;15006;48.584;9.186;2023-02-15T16:04:10;11.93;;;6.60;;
27566;SDS011;15006;48.584;9.186;2023-02-15T16:06:39;7.53;;;6.78;;
27566;SDS011;15006;48.584;9.186;2023-02-15T16:09:17;8.02;;;7.15;;
27566;SDS011;15006;48.584;9.186;2023-02-15T16:11:47;8.05;;;7.25;;
27566;SDS011;15006;48.584;9.186;2023-02-15T16:14:18;7.43;;;6.82;;
27566;SDS011;15006;48.584;9.186;2023-02-15T16:17:01;7.93;;;7.30;;
27566;SDS011;15006;48.584;9.186;2023-02-15T16:19:33;8.48;;;7.35;;
27566;SDS011;15006;48.584;9.186;2023-02-15T16:22:07;9.32;;;6.97;;
27566;SDS011;15006;48.584;9.186;2023-02-15T16:27:37;11.85;;;8.50;;
27566;SDS011;15006;48.584;9.186;2023-02-15T16:32:55;12.95;;;8.98;;
27566;SDS011;15006;48.584;9.186;2023-02-15T16:35:30;16.67;;;9.45;;
27566;SDS011;15006;48.584;9.186;2023-02-15T16:37:56;12.77;;;9.60;;
27566;SDS011;15006;48.584;9.186;2023-02-15T16:43:23;18.83;;;9.60;;
27566;SDS011;15006;48.584;9.186;2023-02-15T16:45:58;13.77;;;10.02;;
27566;SDS011;15006;48.584;9.186;2023-02-15T16:48:33;9.85;;;8.85;;
27566;SDS011;15006;48.584;9.186;2023-02-15T16:51:05;12.13;;;9.15;;
27566;SDS011;15006;48.584;9.186;2023-02-15T16:53:31;15.38;;;9.43;;
27566;SDS011;15006;48.584;9.186;2023-02-15T16:55:58;17.00;;;10.02;;
27566;SDS011;15006;48.584;9.186;2023-02-15T16:58:35;14.18;;;10.30;;
27566;SDS011;15006;48.584;9.186;2023-02-15T17:01:07;14.85;;;11.80;;
27566;SDS011;15006;48.584;9.186;2023-02-15T17:03:37;21.00;;;11.60;;
27566;SDS011;15006;48.584;9.186;2023-02-15T17:06:05;14.77;;;11.30;;
27566;SDS011;15006;48.584;9.186;2023-02-15T17:08:51;20.80;;;11.88;;
27566;SDS011;15006;48.584;9.186;2023-02-15T17:11:35;20.67;;;13.38;;
27566;SDS011;15006;48.584;9.186;2023-02-15T17:16:41;22.58;;;14.88;;
27566;SDS011;15006;48.584;9.186;2023-02-15T17:19:20;19.38;;;13.90;;
27566;SDS011;15006;48.584;9.186;2023-02-15T17:21:57;21.70;;;13.82;;
27566;SDS011;15006;48.584;9.186;2023-02-15T17:24:42;20.88;;;15.43;;
27566;SDS011;15006;48.584;9.186;2023-02-15T17:27:23;19.42;;;13.98;;
27566;SDS011;15006;48.584;9.186;2023-02-15T17:29:52;25.23;;;14.93;;
27566;SDS011;15006;48.584;9.186;2023-02-15T17:32:27;21.08;;;14.00;;
27566;SDS011;15006;48.584;9.186;2023-02-15T17:42:52;26.30;;;13.95;;
27566;SDS011;15006;48.584;9.186;2023-02-15T17:45:20;23.80;;;14.15;;
27566;SDS011;15006;48.584;9.186;2023-02-15T17:47:50;26.38;;;14.30;;
27566;SDS011;15006;48.584;9.186;2023-02-15T17:50:20;25.88;;;15.68;;
27566;SDS011;15006;48.584;9.186;2023-02-15T17:52:50;26.92;;;16.23;;
27566;SDS011;15006;48.584;9.186;2023-02-15T17:55:19;34.92;;;17.63;;
27566;SDS011;15006;48.584;9.186;2023-02-15T17:58:07;31.70;;;19.55;;
27566;SDS011;15006;48.584;9.186;2023-02-15T18:00:56;29.55;;;17.77;;
27566;SDS011;15006;48.584;9.186;2023-02-15T18:03:45;20.42;;;12.75;;
27566;SDS011;15006;48.584;9.186;2023-02-15T18:06:33;23.92;;;14.05;;
27566;SDS011;15006;48.584;9.186;2023-02-15T18:09:20;28.77;;;13.88;;
27566;SDS011;15006;48.584;9.186;2023-02-15T18:12:22;22.63;;;13.90;;
27566;SDS011;15006;48.584;9.186;2023-02-15T18:14:56;14.32;;;10.02;;
27566;SDS011;15006;48.584;9.186;2023-02-15T18:20:17;22.67;;;13.40;;
27566;SDS011;15006;48.584;9.186;2023-02-15T18:22:58;24.08;;;13.48;;
27566;SDS011;15006;48.584;9.186;2023-02-15T18:25:26;24.80;;;14.70;;
27566;SDS011;15006;48.584;9.186;2023-02-15T18:27:52;25.15;;;13.50;;
27566;SDS011;15006;48.584;9.186;2023-02-15T18:30:20;19.65;;;12.40;;
27566;SDS011;15006;48.584;9.186;2023-02-15T18:32:50;23.58;;;13.60;;